Lincoln, NE (68505)

11:47 PM CDT on September 18, 2014 (GMT -0500)
Wulf weather | Change Station
CLOSE
Current Station
Personal Weather Station
Location: Lincoln, NE
Elevation: 1243 ft
Nearby Weather Stations

Elev 1243 ft 40.85 °N, 96.63 °W | Updated 8 seconds ago

Overcast
Overcast
64.0 °F
Feels Like 64.0 °F
N
9.8
Wind Variable Wind from SW
Gusts 9.8 mph

Today
High -- | Low -- °F
--% Chance of Precip.
Yesterday
High -- | Low -- °F
Precip. -- in
7:10 AM 7:30 PM
Waning Crescent, 22% visible
Pressure 29.96 in
Visibility 9.0 miles
Clouds Overcast 1000 ft
Dew Point 60 °F
Humidity 88%
Rainfall 0.00 in
Snow Depth Not available.
UV 0 out of 12
Pollen 6.10 out of 12
Air Quality Not available.
Flu Activity Not available.
METAR KLNK 190354Z 16012KT 9SM OVC010 18/15 A2998 RMK AO2 SLP143 T01780150

More Conditions Fewer Conditions

Pressure 29.96 in
Visibility 9.0 miles
Clouds Overcast 1000 ft
Dew Point 60 °F
Humidity 88%
Rainfall 0.00 in
Snow Depth Not available.
UV 0 out of 12
Pollen 6.10 out of 12
Air Quality Not available.
Flu Activity Not available.
METAR KLNK 190354Z 16012KT 9SM OVC010 18/15 A2998 RMK AO2 SLP143 T01780150

More Conditions Fewer Conditions

10-Day Weather Forecast

Almanac

Astronomy

Sep. 18, 2014 Rise Set
Actual Time 7:10 AM CDT 7:30 PM CDT
Civil Twilight 6:42 AM CDT 7:57 PM CDT
Nautical Twilight 6:10 AM CDT 8:29 PM CDT
Astronomical Twilight 5:37 AM CDT 9:02 PM CDT
Moon 2:01 AM CDT (9/18) 4:23 PM CDT (9/18)
Length of Visible Light 13h 15m
Length of Day
12h 20m
Tomorrow will be 2m 42s shorter.
Waning Crescent, 22% of the Moon is Illuminated
Sep 19
Waning Crescent
Sep 24
New
Oct 1
First Quarter
Oct 8
Full
Oct 15
Last Quarter

Yesterday's Extremes

State Highs State Lows

Community

WunderPhotos

Upload Photos

1,754,558 photos uploaded!

Nearby

Snow Depth

Station Depth Elevation
No new snow has been reported.

Earthquake Activity

City Distance Mag. Time & Date
No recent earthquake activity has been reported nearby.
Minimum magnitude displayed is 2.5.

Coastal Water Temperatures

Place Temperature
No Stations Reporting

Nearby Weather Stations